Página principal
METAR-TAF:

METAR-TAF

Aeroportos :

Wallis, França

latitude: 13-14S, longitude: 176-10W, altura: 23 m

METAR: em falta

Hora: 13:15 (01:15 UTC)

Previsão

O boletim foi feito há 2 horas e 15 minutos, às 23:00 UTC
Previsão válida de 16 às 00 UTC a 16 às 24 UTC
Vento 8 kt de es-sudeste
Visibilidade 10 km ou mais
Nuvens dispersasa uma altura de 2000 ft
Probabilidade 40% :
Temporariamente
de 16 às 12 UTC a 16 às 24 UTC
Poucas nuvensa uma altura de 2000 ft, Cumulus congestus.
aguaceiros de chuva

TAF: NLWW 152300Z 1600/1624 12008KT 9999 SCT020 PROB40 TEMPO 1612/1624 SHRA FEW020TCU

Observações e previsões do tempo de mais de 4000 aeroportos (mensagens METAR e TAF).

As estações disponíveis são os pontos amarelos e vermelhos sobre o mapa.

Mova o rato sobre o mapa para ver o nome da estação.

Depois clique no ponto para visualizar as observações e previsões meteorológicas.

Para alterar o mapa : clique nos botões verdes com uma cruz preta para aumentar o zoom; no botão verde com uma pitada de zoom; ou nas setas verdes para mapas adjacentes.


METAR-TAF: